Other Surface Observations
Issued by NWS Great Falls, MT

Home | Current Version | Previous Version | Text Only | Print | Product List | Glossary On
Versions: 1 2 3 4 5 6 7 8 9 10 11 12 13 14 15 16 17 18 19 20 21 22 23 24 25 26 27 28 29 30 31 32 33 34 35 36 37 38 39 40 41 42 43 44 45 46 47 48 49 50
000
SXUS55 KTFX 241844
OSOTFX
AREA AWOS OBSERVATIONS
NATIONAL WEATHER SERVICE GREAT FALLS MT
1244 PM MDT SUN JUL 24 2016

METAR KPWD 241845Z AUTO 25005KT 7SM 26/11 A3003 RMK PLENTYWOOD
METAR KPO1 241845Z AUTO 24005KT 10SM 27/11 A3004 RMK POPLAR
METAR K1S3 241845Z AUTO 00000KT 10SM 30/07 A3004 RMK FORSYTH
METAR KS71 241845Z AUTO 25007KT 10SM 27/07 A3003 RMK CHINOOK
METAR K38S 241845Z AUTO 00000KT 10SM 23/02 A3020 RMK DEER LODGE
METAR K3U3 241845Z AUTO 03006KT 10SM 23/06 A3017 RMK ANACONDA
METAR K6S5 241845Z AUTO 00000KT 10SM 23/05 A3013 RMK HAMILTON
METAR KS59 241845Z AUTO 32005KT 10SM 24/08 A3010 RMK LIBBY
METAR K88M 241845Z AUTO 12003KT 10SM 24/07 A3011 RMK EUREKA



USA.gov is the U.S. government's official web portal to all federal, state and local government web resources and services.